Time;durP1;ratioP1;P1;durP2;ratioP2;P2;SDS_P1;SDS_P2;PMS_P1;PMS_P2;Temp;Humidity;BMP_temperature;BMP_pressure;BME280_temperature;BME280_humidity;BME280_pressure;Samples;Min_cycle;Max_cycle;Signal;HPM_P1;HPM_P2
2022/07/19 00:00:24;;;;;;;4.57;2.53;;;21.40;88.40;;;;;;2086534;28;20025;-66
2022/07/19 00:01:25;;;;;;;4.88;2.67;;;21.40;88.60;;;;;;2085909;28;20053;-69
2022/07/19 00:02:26;;;;;;;3.13;2.80;;;21.30;89.30;;;;;;2082948;28;20076;-69
2022/07/19 00:03:27;;;;;;;5.28;2.88;;;21.30;89.30;;;;;;2085937;28;20025;-69
2022/07/19 00:04:27;;;;;;;3.45;2.40;;;21.40;90.10;;;;;;2087634;28;20049;-69
2022/07/19 00:05:28;;;;;;;4.43;3.35;;;21.30;89.50;;;;;;2081825;28;20022;-69
2022/07/19 00:06:29;;;;;;;4.70;2.50;;;21.20;89.50;;;;;;2086668;28;20025;-69
2022/07/19 00:07:30;;;;;;;2.90;2.58;;;21.30;90.30;;;;;;2084849;28;20017;-69
2022/07/19 00:08:30;;;;;;;6.78;3.15;;;21.30;89.80;;;;;;2085893;28;20052;-69
2022/07/19 00:09:31;;;;;;;5.90;3.15;;;21.20;90.30;;;;;;2085488;28;20213;-69
2022/07/19 00:10:31;;;;;;;4.75;2.90;;;21.20;90.60;;;;;;2084253;28;20022;-69
2022/07/19 00:11:32;;;;;;;6.45;3.30;;;21.20;90.90;;;;;;2084800;28;20029;-67
2022/07/19 00:12:33;;;;;;;4.45;3.35;;;21.20;91.30;;;;;;2082613;28;20028;-69
2022/07/19 00:13:34;;;;;;;4.28;2.42;;;21.20;90.10;;;;;;2084705;28;20798;-67
2022/07/19 00:14:34;;;;;;;4.03;2.60;;;21.20;90.90;;;;;;2087161;28;20453;-69
2022/07/19 00:15:35;;;;;;;4.13;3.35;;;21.10;90.50;;;;;;2085798;28;20025;-66
2022/07/19 00:16:35;;;;;;;6.13;2.70;;;21.10;91.20;;;;;;2087181;28;20097;-68
2022/07/19 00:17:40;;;;;;;3.45;2.75;;;21.10;91.10;;;;;;2086671;28;20025;-69
2022/07/19 00:18:42;;;;;;;4.85;2.83;;;21.10;91.70;;;;;;2084806;28;20024;-67
2022/07/19 00:19:42;;;;;;;4.68;3.17;;;21.10;91.40;;;;;;2083184;28;20041;-69
2022/07/19 00:20:43;;;;;;;2.97;2.67;;;21.00;92.00;;;;;;2082055;28;20872;-69
2022/07/19 00:21:43;;;;;;;3.75;2.67;;;21.00;92.60;;;;;;2085959;28;20051;-69
2022/07/19 00:22:44;;;;;;;3.65;2.88;;;21.00;92.00;;;;;;2084864;28;20025;-66
2022/07/19 00:23:45;;;;;;;2.90;2.60;;;21.00;92.00;;;;;;2083607;28;20021;-66
2022/07/19 00:24:46;;;;;;;3.97;2.55;;;21.00;92.60;;;;;;2084472;28;20021;-69
2022/07/19 00:25:46;;;;;;;3.60;2.97;;;21.00;92.90;;;;;;2085816;28;20044;-69
2022/07/19 00:26:47;;;;;;;7.50;3.40;;;21.00;92.90;;;;;;2085048;28;20049;-69
2022/07/19 00:27:47;;;;;;;4.07;2.65;;;20.90;92.80;;;;;;2086689;28;21315;-69
2022/07/19 00:28:48;;;;;;;2.83;2.58;;;20.90;92.90;;;;;;2087056;28;20025;-67
2022/07/19 00:29:49;;;;;;;6.80;2.60;;;20.90;92.60;;;;;;2087865;28;20026;-68
2022/07/19 00:30:49;;;;;;;5.50;2.90;;;20.90;93.50;;;;;;2088901;28;20028;-67
2022/07/19 00:31:50;;;;;;;3.40;2.83;;;20.90;94.10;;;;;;2089806;28;20547;-67
2022/07/19 00:32:50;;;;;;;4.45;2.83;;;20.90;94.00;;;;;;2087382;28;20025;-66
2022/07/19 00:33:51;;;;;;;3.38;2.55;;;20.90;93.90;;;;;;2088467;28;20074;-66
2022/07/19 00:34:52;;;;;;;3.22;2.78;;;20.90;93.90;;;;;;2087318;28;20025;-67
2022/07/19 00:35:52;;;;;;;4.78;2.70;;;20.80;94.00;;;;;;2087145;28;20036;-66
2022/07/19 00:36:53;;;;;;;8.60;3.00;;;20.80;93.80;;;;;;2082416;28;20147;-69
2022/07/19 00:37:53;;;;;;;6.65;2.90;;;20.80;93.70;;;;;;2085406;28;20485;-67
2022/07/19 00:38:54;;;;;;;5.60;2.90;;;20.80;93.90;;;;;;2085112;28;20032;-68
2022/07/19 00:39:55;;;;;;;2.78;2.47;;;20.80;94.20;;;;;;2087691;28;20013;-67
2022/07/19 00:40:55;;;;;;;4.35;3.10;;;20.80;93.90;;;;;;2084512;28;20024;-67
2022/07/19 00:41:56;;;;;;;3.88;3.08;;;20.70;94.00;;;;;;2086495;28;20055;-67
2022/07/19 00:42:56;;;;;;;5.32;2.83;;;20.70;94.40;;;;;;2085282;28;20504;-67
2022/07/19 00:43:57;;;;;;;2.80;2.50;;;20.70;94.50;;;;;;2087457;28;20060;-67
2022/07/19 00:44:58;;;;;;;4.35;3.10;;;20.70;95.00;;;;;;2085724;28;20100;-67
2022/07/19 00:45:59;;;;;;;5.07;2.92;;;20.70;95.40;;;;;;2086434;28;20021;-67
2022/07/19 00:47:07;;;;;;;5.38;2.75;;;20.70;95.60;;;;;;2086427;28;20447;-67
2022/07/19 00:48:08;;;;;;;3.13;2.47;;;20.70;95.70;;;;;;2084843;28;20024;-67
2022/07/19 00:49:08;;;;;;;3.17;2.30;;;20.70;95.70;;;;;;2086894;28;20111;-67
2022/07/19 00:50:09;;;;;;;3.42;2.50;;;20.60;94.70;;;;;;2087128;28;20017;-67
2022/07/19 00:51:12;;;;;;;4.57;3.20;;;20.60;95.60;;;;;;2085293;28;20021;-67
2022/07/19 00:52:14;;;;;;;3.78;2.70;;;20.60;96.20;;;;;;2083681;28;20473;-67
2022/07/19 00:53:15;;;;;;;3.65;2.60;;;20.60;95.70;;;;;;2084028;28;20031;-67
2022/07/19 00:54:16;;;;;;;6.00;2.40;;;20.60;96.20;;;;;;2086565;28;20107;-67
2022/07/19 00:55:22;;;;;;;3.05;2.55;;;20.60;95.50;;;;;;2082212;28;20033;-67
2022/07/19 00:56:24;;;;;;;3.03;2.53;;;20.60;95.80;;;;;;2085350;28;20113;-67
2022/07/19 00:57:25;;;;;;;6.30;2.83;;;20.60;95.70;;;;;;2084571;28;20021;-67
2022/07/19 00:58:26;;;;;;;4.15;2.70;;;20.50;95.70;;;;;;2086051;28;20119;-67
2022/07/19 00:59:27;;;;;;;3.72;2.90;;;20.50;96.40;;;;;;2085284;28;20029;-67
2022/07/19 01:00:32;;;;;;;4.57;2.53;;;20.50;96.40;;;;;;2086633;28;20018;-67
2022/07/19 01:01:33;;;;;;;4.80;2.88;;;20.50;96.90;;;;;;2086585;28;20017;-67
2022/07/19 01:02:35;;;;;;;3.90;3.03;;;20.50;96.30;;;;;;2086621;28;20485;-67
2022/07/19 01:03:38;;;;;;;4.65;2.85;;;20.50;96.50;;;;;;2085609;28;20025;-67
2022/07/19 01:04:39;;;;;;;4.25;2.63;;;20.50;95.90;;;;;;2086016;28;20029;-67
2022/07/19 01:05:40;;;;;;;5.38;3.00;;;20.50;96.20;;;;;;2084720;28;20060;-67
2022/07/19 01:06:41;;;;;;;3.55;2.83;;;20.40;96.70;;;;;;2084026;28;20100;-67
2022/07/19 01:07:42;;;;;;;4.82;2.78;;;20.40;97.00;;;;;;2082207;28;20052;-67
2022/07/19 01:08:43;;;;;;;3.15;2.78;;;20.40;97.30;;;;;;2083127;28;20045;-67
2022/07/19 01:09:44;;;;;;;4.90;3.20;;;20.40;97.40;;;;;;2084236;28;20021;-67
2022/07/19 01:10:45;;;;;;;4.90;2.72;;;20.40;97.20;;;;;;2086924;28;20109;-69
2022/07/19 01:11:46;;;;;;;6.50;2.83;;;20.40;98.20;;;;;;2082289;28;20033;-67
2022/07/19 01:12:46;;;;;;;4.68;2.92;;;20.40;97.80;;;;;;2084653;28;20029;-67
2022/07/19 01:13:48;;;;;;;5.47;2.70;;;20.40;98.40;;;;;;2086946;28;20083;-67
2022/07/19 01:14:54;;;;;;;2.60;2.40;;;20.40;98.30;;;;;;2084010;28;20021;-67
2022/07/19 01:15:55;;;;;;;3.83;2.90;;;20.40;98.50;;;;;;2082882;28;20103;-67
2022/07/19 01:16:56;;;;;;;2.42;2.22;;;20.30;99.40;;;;;;2085977;28;20092;-67
2022/07/19 01:17:57;;;;;;;3.10;2.72;;;20.30;99.70;;;;;;2085308;28;20021;-67
2022/07/19 01:18:57;;;;;;;4.13;2.72;;;20.30;98.00;;;;;;2085704;28;20032;-67
2022/07/19 01:19:58;;;;;;;3.55;2.60;;;20.30;98.60;;;;;;2084428;28;20045;-68
2022/07/19 01:21:00;;;;;;;4.22;2.80;;;20.30;99.20;;;;;;2085289;28;20035;-67
2022/07/19 01:22:01;;;;;;;4.13;2.40;;;20.30;98.60;;;;;;2083808;28;20052;-67
2022/07/19 01:23:02;;;;;;;2.97;2.63;;;20.30;99.10;;;;;;2085245;28;20017;-67
2022/07/19 01:24:03;;;;;;;5.20;2.72;;;20.30;99.40;;;;;;2086932;28;20026;-67
2022/07/19 01:25:04;;;;;;;3.95;2.80;;;20.30;99.90;;;;;;2082295;28;20029;-67
2022/07/19 01:26:05;;;;;;;4.68;2.63;;;20.20;99.90;;;;;;2083460;28;20536;-67
2022/07/19 01:27:05;;;;;;;3.33;2.63;;;20.20;99.40;;;;;;2084918;28;20381;-67
2022/07/19 01:28:07;;;;;;;3.25;2.80;;;20.20;99.50;;;;;;2083737;28;20016;-67
2022/07/19 01:29:08;;;;;;;3.40;2.75;;;20.20;99.70;;;;;;2084481;28;20029;-67
2022/07/19 01:30:17;;;;;;;4.57;3.17;;;20.20;99.70;;;;;;2078846;28;20102;-67
2022/07/19 01:31:17;;;;;;;5.10;3.15;;;20.20;99.90;;;;;;2084265;28;20036;-67
2022/07/19 01:32:18;;;;;;;3.50;2.42;;;20.20;99.90;;;;;;2085743;28;20108;-67
2022/07/19 01:33:19;;;;;;;6.05;3.17;;;20.20;99.90;;;;;;2085492;28;20028;-67
2022/07/19 01:34:19;;;;;;;4.80;2.60;;;20.20;99.90;;;;;;2084192;28;20018;-67
2022/07/19 01:35:20;;;;;;;4.50;3.17;;;20.20;99.90;;;;;;2085481;28;20488;-67
2022/07/19 01:36:21;;;;;;;4.03;2.70;;;20.10;99.90;;;;;;2084616;28;20705;-67
2022/07/19 01:37:22;;;;;;;3.92;2.95;;;20.20;99.70;;;;;;2084890;28;20051;-67
2022/07/19 01:38:22;;;;;;;2.85;2.30;;;20.10;99.90;;;;;;2084624;28;20095;-67
2022/07/19 01:39:23;;;;;;;3.63;3.00;;;20.20;99.90;;;;;;2082048;28;20021;-67
2022/07/19 01:40:24;;;;;;;3.63;2.72;;;20.10;99.10;;;;;;2085024;28;20035;-67
2022/07/19 01:41:24;;;;;;;3.20;2.63;;;20.10;99.00;;;;;;2084922;28;20025;-67
2022/07/19 01:42:25;;;;;;;6.18;2.90;;;20.10;99.90;;;;;;2085116;28;20074;-67
2022/07/19 01:43:26;;;;;;;2.60;2.40;;;20.10;99.30;;;;;;2084235;28;20469;-67
2022/07/19 01:44:26;;;;;;;3.60;2.60;;;20.10;99.90;;;;;;2081876;28;20057;-67
2022/07/19 01:45:27;;;;;;;7.47;3.30;;;20.10;99.90;;;;;;2083492;28;20022;-67
2022/07/19 01:46:27;;;;;;;5.72;2.70;;;20.10;99.90;;;;;;2083091;28;20100;-67
2022/07/19 01:47:28;;;;;;;3.25;2.80;;;20.10;99.90;;;;;;2084783;28;20028;-67
2022/07/19 01:48:29;;;;;;;3.00;2.40;;;20.10;99.90;;;;;;2083338;28;20026;-67
2022/07/19 01:49:29;;;;;;;2.67;2.35;;;20.00;99.90;;;;;;2084486;28;20022;-67
2022/07/19 01:50:30;;;;;;;3.30;2.85;;;20.00;99.90;;;;;;2083830;28;20017;-67
2022/07/19 01:51:31;;;;;;;2.70;2.50;;;20.00;99.90;;;;;;2085565;28;20428;-67
2022/07/19 01:52:31;;;;;;;3.17;2.65;;;20.00;99.90;;;;;;2084168;28;20014;-67
2022/07/19 01:53:32;;;;;;;3.38;2.95;;;20.00;99.90;;;;;;2085065;28;20060;-67
2022/07/19 01:54:33;;;;;;;3.15;2.85;;;20.00;99.90;;;;;;2084447;28;20043;-67
2022/07/19 01:55:33;;;;;;;4.80;2.83;;;20.00;99.90;;;;;;2081277;28;20473;-67
2022/07/19 01:56:34;;;;;;;3.40;2.75;;;20.00;99.90;;;;;;2080920;28;20059;-67
2022/07/19 01:57:35;;;;;;;3.72;2.70;;;20.00;99.90;;;;;;2084134;28;20033;-67
2022/07/19 01:58:35;;;;;;;3.08;2.72;;;20.00;99.90;;;;;;2084149;28;20017;-67
2022/07/19 01:59:37;;;;;;;4.65;2.90;;;20.00;99.90;;;;;;2083963;28;20026;-67
2022/07/19 02:00:37;;;;;;;2.85;2.40;;;20.00;99.90;;;;;;2084079;28;20025;-67
2022/07/19 02:01:38;;;;;;;3.60;2.72;;;20.00;99.90;;;;;;2082522;28;20536;-67
2022/07/19 02:02:39;;;;;;;5.18;3.25;;;20.00;99.90;;;;;;2082699;28;20032;-67
2022/07/19 02:03:39;;;;;;;3.80;2.88;;;20.00;99.90;;;;;;2084135;28;20021;-67
2022/07/19 02:04:40;;;;;;;4.25;2.65;;;20.00;99.90;;;;;;2085395;28;20028;-67
2022/07/19 02:05:41;;;;;;;3.22;2.58;;;19.90;99.90;;;;;;2080394;28;20029;-67
2022/07/19 02:06:41;;;;;;;3.35;2.38;;;20.00;99.90;;;;;;2085021;28;20100;-67
2022/07/19 02:07:42;;;;;;;4.80;3.15;;;19.90;99.90;;;;;;2084719;28;20055;-67
2022/07/19 02:08:42;;;;;;;3.55;2.58;;;19.90;99.90;;;;;;2081815;28;20097;-67
2022/07/19 02:09:43;;;;;;;3.75;2.72;;;19.90;99.90;;;;;;2086533;28;20021;-67
2022/07/19 02:10:44;;;;;;;3.35;2.97;;;19.90;99.90;;;;;;2084905;28;20095;-67
2022/07/19 02:11:44;;;;;;;6.13;2.80;;;19.90;99.90;;;;;;2084669;28;20127;-67
2022/07/19 02:12:45;;;;;;;4.20;2.72;;;19.90;99.90;;;;;;2085879;28;20047;-67
2022/07/19 02:13:46;;;;;;;2.47;2.20;;;19.90;99.90;;;;;;2086226;28;20044;-67
2022/07/19 02:14:47;;;;;;;4.68;2.90;;;19.90;99.90;;;;;;2083298;28;20534;-67
2022/07/19 02:15:47;;;;;;;5.82;2.78;;;19.90;99.90;;;;;;2079325;28;20028;-67
2022/07/19 02:16:48;;;;;;;3.75;2.85;;;19.90;99.90;;;;;;2084317;28;20057;-67
2022/07/19 02:17:49;;;;;;;3.40;3.10;;;19.90;99.90;;;;;;2081521;28;20021;-67
2022/07/19 02:18:49;;;;;;;3.00;2.35;;;19.90;99.90;;;;;;2081588;28;20048;-67
2022/07/19 02:19:50;;;;;;;3.35;2.90;;;19.90;99.90;;;;;;2083585;28;20049;-67
2022/07/19 02:20:50;;;;;;;3.97;2.60;;;19.90;99.90;;;;;;2088543;28;20116;-67
2022/07/19 02:21:51;;;;;;;4.40;2.90;;;19.90;99.90;;;;;;2087167;28;20096;-67
2022/07/19 02:22:52;;;;;;;3.45;2.50;;;19.80;99.90;;;;;;2087753;28;20614;-67
2022/07/19 02:23:52;;;;;;;4.07;2.60;;;19.80;99.90;;;;;;2086862;28;20028;-67
2022/07/19 02:24:53;;;;;;;4.15;2.65;;;19.80;99.90;;;;;;2083327;28;20017;-67
2022/07/19 02:25:53;;;;;;;3.90;2.85;;;19.80;99.90;;;;;;2086793;28;20021;-67
2022/07/19 02:26:54;;;;;;;3.65;2.70;;;19.80;99.90;;;;;;2081317;28;20469;-67
2022/07/19 02:27:55;;;;;;;4.03;2.75;;;19.80;99.90;;;;;;2085527;28;20029;-67
2022/07/19 02:28:55;;;;;;;4.22;2.90;;;19.80;99.90;;;;;;2088281;28;20063;-67
2022/07/19 02:29:56;;;;;;;3.28;2.80;;;19.80;99.90;;;;;;2083707;28;20021;-67
2022/07/19 02:30:56;;;;;;;4.93;2.50;;;19.80;99.90;;;;;;2084429;28;20021;-67
2022/07/19 02:31:57;;;;;;;3.80;2.60;;;19.80;99.90;;;;;;2083599;28;20100;-67
2022/07/19 02:32:57;;;;;;;3.55;3.22;;;19.80;99.90;;;;;;2084187;28;20447;-67
2022/07/19 02:33:58;;;;;;;4.18;2.85;;;19.80;99.90;;;;;;2084203;28;20470;-67
2022/07/19 02:34:59;;;;;;;4.97;3.00;;;19.70;99.90;;;;;;2084073;28;20029;-67
2022/07/19 02:36:00;;;;;;;3.95;2.50;;;19.80;99.90;;;;;;2085102;28;20516;-67
2022/07/19 02:37:01;;;;;;;3.28;2.45;;;19.70;99.90;;;;;;2085826;28;20013;-67
2022/07/19 02:38:01;;;;;;;4.32;2.90;;;19.70;99.90;;;;;;2085732;28;20067;-67
2022/07/19 02:39:02;;;;;;;3.70;2.70;;;19.70;99.90;;;;;;2086125;28;20020;-67
2022/07/19 02:40:04;;;;;;;3.88;2.88;;;19.70;99.90;;;;;;2085399;28;20044;-67
2022/07/19 02:41:05;;;;;;;4.05;2.80;;;19.70;99.90;;;;;;2086686;28;20053;-67
2022/07/19 02:42:05;;;;;;;3.08;2.50;;;19.70;99.90;;;;;;2082213;28;20026;-67
2022/07/19 02:43:06;;;;;;;3.30;2.53;;;19.70;99.90;;;;;;2086642;28;20478;-67
2022/07/19 02:44:06;;;;;;;3.33;2.67;;;19.70;99.90;;;;;;2086665;28;20500;-67
2022/07/19 02:45:08;;;;;;;5.25;2.63;;;19.70;99.90;;;;;;2083986;28;20074;-67
2022/07/19 02:46:08;;;;;;;3.03;2.72;;;19.70;99.90;;;;;;2085471;28;20029;-67
2022/07/19 02:47:09;;;;;;;4.35;3.17;;;19.70;99.90;;;;;;2085411;28;20092;-67
2022/07/19 02:48:09;;;;;;;3.20;2.47;;;19.70;99.90;;;;;;2082616;28;20029;-67
2022/07/19 02:49:10;;;;;;;5.68;2.60;;;19.70;99.90;;;;;;2084967;28;20095;-67
2022/07/19 02:50:11;;;;;;;3.40;2.60;;;19.70;99.90;;;;;;2083105;28;21282;-67
2022/07/19 02:51:12;;;;;;;3.60;2.30;;;19.70;99.90;;;;;;2085209;28;20013;-67
2022/07/19 02:52:12;;;;;;;3.22;2.88;;;19.60;99.90;;;;;;2084934;28;20454;-67
2022/07/19 02:53:13;;;;;;;3.95;3.25;;;19.60;99.90;;;;;;2082547;28;20318;-67
2022/07/19 02:54:14;;;;;;;4.88;3.05;;;19.60;99.90;;;;;;2086045;28;20107;-67
2022/07/19 02:55:14;;;;;;;5.43;2.78;;;19.60;99.90;;;;;;2084610;28;20079;-67
2022/07/19 02:56:15;;;;;;;3.90;2.55;;;19.60;99.90;;;;;;2085844;28;20044;-67
2022/07/19 02:57:15;;;;;;;2.97;2.65;;;19.60;99.90;;;;;;2081307;28;20474;-67
2022/07/19 02:58:16;;;;;;;4.05;2.55;;;19.60;99.90;;;;;;2083128;28;20096;-67
2022/07/19 02:59:17;;;;;;;3.50;2.42;;;19.60;99.90;;;;;;2084030;28;20098;-67
2022/07/19 03:00:18;;;;;;;3.83;2.92;;;19.60;99.90;;;;;;2081850;28;20031;-67
2022/07/19 03:01:19;;;;;;;3.08;2.78;;;19.50;99.90;;;;;;2084661;28;20029;-67
2022/07/19 03:02:19;;;;;;;5.40;3.30;;;19.50;99.90;;;;;;2083201;28;20567;-67
2022/07/19 03:04:39;;;;;;;3.08;2.78;;;19.50;99.90;;;;;;2084091;28;20022;-67
2022/07/19 03:05:40;;;;;;;5.05;3.20;;;19.50;99.90;;;;;;2081999;28;20022;-67
2022/07/19 03:06:40;;;;;;;4.40;2.53;;;19.50;99.90;;;;;;2083991;28;20469;-67
2022/07/19 03:07:41;;;;;;;2.55;2.20;;;19.50;99.90;;;;;;2084027;28;20021;-67
2022/07/19 03:08:42;;;;;;;5.65;3.00;;;19.50;99.90;;;;;;2083701;28;20029;-67
2022/07/19 03:09:43;;;;;;;2.42;2.22;;;19.50;99.90;;;;;;2084827;28;20655;-67
2022/07/19 03:10:44;;;;;;;4.35;2.72;;;19.50;99.90;;;;;;2085199;28;20397;-67
2022/07/19 03:11:44;;;;;;;3.17;2.85;;;19.50;99.90;;;;;;2082667;28;20014;-67
2022/07/19 03:12:45;;;;;;;4.82;2.63;;;19.40;99.90;;;;;;2084300;28;20017;-67
2022/07/19 03:13:45;;;;;;;4.68;2.72;;;19.40;99.90;;;;;;2084504;28;20025;-67
2022/07/19 03:14:46;;;;;;;3.50;2.72;;;19.40;99.90;;;;;;2082423;28;20021;-67
2022/07/19 03:15:48;;;;;;;3.33;2.75;;;19.40;99.90;;;;;;2086813;28;20017;-67
2022/07/19 03:16:48;;;;;;;4.22;2.75;;;19.40;99.90;;;;;;2083330;28;20521;-67
2022/07/19 03:17:49;;;;;;;3.38;2.78;;;19.40;99.90;;;;;;2085812;28;20136;-67
2022/07/19 03:18:49;;;;;;;4.60;2.83;;;19.40;99.90;;;;;;2085084;28;20021;-67
2022/07/19 03:19:50;;;;;;;4.18;3.08;;;19.40;99.90;;;;;;2086415;28;20021;-67
2022/07/19 03:20:50;;;;;;;3.55;3.05;;;19.40;99.90;;;;;;2085037;28;20548;-67
2022/07/19 03:21:51;;;;;;;3.30;2.60;;;19.40;99.90;;;;;;2086394;28;20431;-67
2022/07/19 03:22:52;;;;;;;2.72;2.28;;;19.40;99.90;;;;;;2085849;28;20026;-67
2022/07/19 03:23:52;;;;;;;4.80;2.97;;;19.40;99.90;;;;;;2085629;28;20096;-67
2022/07/19 03:24:56;;;;;;;2.58;2.33;;;19.40;99.90;;;;;;2086443;28;20496;-67
2022/07/19 03:25:57;;;;;;;5.95;3.28;;;19.40;99.90;;;;;;2085755;28;20021;-67
2022/07/19 03:26:57;;;;;;;2.63;2.40;;;19.30;99.90;;;;;;2085288;28;20474;-67
2022/07/19 03:27:58;;;;;;;4.45;3.10;;;19.30;99.90;;;;;;2087170;28;20408;-67
2022/07/19 03:28:59;;;;;;;6.95;3.40;;;19.30;99.90;;;;;;2086153;28;20053;-67
2022/07/19 03:29:59;;;;;;;4.97;2.95;;;19.30;99.90;;;;;;2087443;28;20045;-67
2022/07/19 03:31:00;;;;;;;3.38;2.72;;;19.30;99.90;;;;;;2086890;28;20024;-67
2022/07/19 03:32:01;;;;;;;3.33;2.90;;;19.30;99.90;;;;;;2083535;28;20104;-67
2022/07/19 03:33:01;;;;;;;3.92;3.15;;;19.30;99.90;;;;;;2086301;28;20032;-67
2022/07/19 03:34:02;;;;;;;3.20;2.55;;;19.30;99.90;;;;;;2084750;28;20092;-67
2022/07/19 03:35:04;;;;;;;4.10;2.80;;;19.30;99.90;;;;;;2084328;28;20013;-67
2022/07/19 03:36:05;;;;;;;3.40;2.60;;;19.30;99.90;;;;;;2087783;28;20522;-67
2022/07/19 03:37:05;;;;;;;2.83;2.60;;;19.30;99.90;;;;;;2083895;28;20428;-67
2022/07/19 03:38:06;;;;;;;3.15;2.50;;;19.30;99.90;;;;;;2084042;28;20014;-67
2022/07/19 03:39:06;;;;;;;3.63;2.55;;;19.30;99.90;;;;;;2084208;28;20128;-67
2022/07/19 03:40:08;;;;;;;3.92;2.83;;;19.30;99.90;;;;;;2084490;28;20131;-67
2022/07/19 03:41:08;;;;;;;3.53;2.70;;;19.30;99.90;;;;;;2087112;28;20013;-67
2022/07/19 03:42:09;;;;;;;6.28;2.75;;;19.30;99.90;;;;;;2086117;28;20017;-67
2022/07/19 03:43:10;;;;;;;3.20;2.90;;;19.20;99.90;;;;;;2085232;28;20054;-67
2022/07/19 03:44:10;;;;;;;3.72;2.80;;;19.30;99.90;;;;;;2084872;28;20017;-67
2022/07/19 03:45:11;;;;;;;4.70;3.13;;;19.30;99.90;;;;;;2085142;28;20100;-67
2022/07/19 03:46:12;;;;;;;3.38;2.90;;;19.30;99.90;;;;;;2088974;28;20059;-67
2022/07/19 03:47:13;;;;;;;2.97;2.58;;;19.20;99.90;;;;;;2084970;28;20020;-67
2022/07/19 03:48:14;;;;;;;5.70;3.03;;;19.30;99.90;;;;;;2087726;28;20032;-67
2022/07/19 03:49:14;;;;;;;3.25;2.70;;;19.20;99.90;;;;;;2084309;28;20594;-67
2022/07/19 03:50:15;;;;;;;4.45;2.60;;;19.20;99.90;;;;;;2086508;28;20393;-67
2022/07/19 03:51:15;;;;;;;3.05;2.75;;;19.20;99.90;;;;;;2086302;28;20036;-67
2022/07/19 03:52:16;;;;;;;7.03;3.17;;;19.20;99.90;;;;;;2082925;28;20508;-67
2022/07/19 03:53:17;;;;;;;3.88;3.03;;;19.20;99.90;;;;;;2082600;28;20101;-67
2022/07/19 03:54:17;;;;;;;8.35;3.17;;;19.20;99.90;;;;;;2086059;28;20615;-67
2022/07/19 03:55:18;;;;;;;3.60;3.03;;;19.20;99.90;;;;;;2084684;28;20483;-67
2022/07/19 03:56:20;;;;;;;4.35;2.83;;;19.20;99.90;;;;;;2085941;28;20112;-67
2022/07/19 03:57:21;;;;;;;6.78;2.72;;;19.20;99.90;;;;;;2084880;28;20115;-67
2022/07/19 03:58:21;;;;;;;4.10;2.65;;;19.20;99.90;;;;;;2087714;28;20053;-67
2022/07/19 03:59:25;;;;;;;4.82;3.00;;;19.30;99.90;;;;;;2085948;28;20472;-67
2022/07/19 04:00:26;;;;;;;5.90;3.30;;;19.20;99.90;;;;;;2087177;28;20025;-67
2022/07/19 04:01:27;;;;;;;7.75;3.47;;;19.20;99.90;;;;;;2082633;28;20021;-67
2022/07/19 04:02:27;;;;;;;5.10;3.15;;;19.20;99.90;;;;;;2085871;28;20033;-67
2022/07/19 04:03:28;;;;;;;4.68;2.75;;;19.20;99.90;;;;;;2086749;28;20027;-67
2022/07/19 04:04:29;;;;;;;3.70;3.03;;;19.20;99.90;;;;;;2083823;28;20021;-67
2022/07/19 04:05:30;;;;;;;2.97;2.67;;;19.20;99.90;;;;;;2082621;28;20057;-67
2022/07/19 04:06:30;;;;;;;6.70;3.00;;;19.20;99.90;;;;;;2083376;28;20116;-67
2022/07/19 04:07:31;;;;;;;3.35;2.80;;;19.20;99.90;;;;;;2082817;28;20025;-67
2022/07/19 04:08:32;;;;;;;4.38;2.50;;;19.20;99.90;;;;;;2085116;28;20485;-67
2022/07/19 04:09:32;;;;;;;4.85;2.50;;;19.30;99.90;;;;;;2082547;28;20593;-67
2022/07/19 04:10:33;;;;;;;2.67;2.40;;;19.20;99.90;;;;;;2082036;28;20481;-67
2022/07/19 04:11:33;;;;;;;3.17;2.88;;;19.30;99.90;;;;;;2085457;28;20037;-67
2022/07/19 04:12:34;;;;;;;6.60;2.85;;;19.30;99.90;;;;;;2084692;28;20100;-67
2022/07/19 04:13:36;;;;;;;3.20;2.90;;;19.30;99.90;;;;;;2084562;28;20036;-67
2022/07/19 04:14:37;;;;;;;5.57;2.83;;;19.30;99.90;;;;;;2087002;28;20120;-67
2022/07/19 04:15:38;;;;;;;5.13;2.95;;;19.30;99.90;;;;;;2087635;28;20477;-67
2022/07/19 04:16:39;;;;;;;3.20;2.80;;;19.30;99.90;;;;;;2085796;28;20021;-67
2022/07/19 04:17:39;;;;;;;3.70;3.20;;;19.30;99.90;;;;;;2087960;28;20480;-67
2022/07/19 04:18:40;;;;;;;4.28;2.55;;;19.30;99.90;;;;;;2085678;28;20529;-67
2022/07/19 04:19:40;;;;;;;3.33;2.55;;;19.30;99.90;;;;;;2086895;28;20369;-67
2022/07/19 04:20:41;;;;;;;3.83;2.83;;;19.30;99.90;;;;;;2088025;28;20544;-67
2022/07/19 04:21:42;;;;;;;3.03;2.75;;;19.30;99.90;;;;;;2086379;28;20017;-67
2022/07/19 04:22:42;;;;;;;5.03;3.10;;;19.30;99.90;;;;;;2087920;28;20021;-67
2022/07/19 04:23:43;;;;;;;2.88;2.63;;;19.40;99.90;;;;;;2086224;28;20588;-67
2022/07/19 04:24:43;;;;;;;3.70;3.20;;;19.40;99.90;;;;;;2083940;28;20036;-67
2022/07/19 04:25:44;;;;;;;3.80;2.92;;;19.40;99.90;;;;;;2083596;28;20473;-67
2022/07/19 04:26:45;;;;;;;4.85;3.05;;;19.40;99.90;;;;;;2085839;28;20037;-67
2022/07/19 04:27:47;;;;;;;3.85;2.85;;;19.40;99.90;;;;;;2086636;28;20116;-67
2022/07/19 04:28:47;;;;;;;5.70;3.10;;;19.40;99.90;;;;;;2082725;28;20061;-67
2022/07/19 04:29:48;;;;;;;3.10;2.67;;;19.40;99.90;;;;;;2085903;28;20408;-67
2022/07/19 04:30:49;;;;;;;3.13;2.72;;;19.40;99.90;;;;;;2087031;28;20495;-67
2022/07/19 04:31:49;;;;;;;3.50;2.92;;;19.40;99.90;;;;;;2084815;28;20013;-67
2022/07/19 04:32:50;;;;;;;4.55;3.22;;;19.50;99.90;;;;;;2083273;28;20025;-67
2022/07/19 04:33:51;;;;;;;4.00;2.70;;;19.50;99.90;;;;;;2087569;28;20693;-67
2022/07/19 04:34:51;;;;;;;3.85;2.67;;;19.60;99.90;;;;;;2087517;28;20044;-67
2022/07/19 04:35:53;;;;;;;3.92;3.17;;;19.70;99.90;;;;;;2085924;28;20036;-67
2022/07/19 04:36:54;;;;;;;3.90;2.78;;;19.80;99.90;;;;;;2085289;28;20025;-67
2022/07/19 04:37:55;;;;;;;3.50;2.90;;;19.90;99.90;;;;;;2085419;28;20469;-67
2022/07/19 04:38:56;;;;;;;5.38;3.08;;;20.10;99.90;;;;;;2084927;28;20094;-67
2022/07/19 04:39:56;;;;;;;3.97;3.30;;;20.20;99.90;;;;;;2083433;28;20183;-67
2022/07/19 04:40:57;;;;;;;3.92;3.03;;;20.20;99.90;;;;;;2085111;28;20024;-67
2022/07/19 04:41:57;;;;;;;4.30;3.05;;;20.20;99.90;;;;;;2084443;28;20029;-67
2022/07/19 04:42:58;;;;;;;5.97;3.05;;;20.20;99.90;;;;;;2086136;28;20021;-67
2022/07/19 04:43:58;;;;;;;5.10;2.92;;;20.30;99.90;;;;;;2085469;28;20017;-67
2022/07/19 04:44:59;;;;;;;5.03;3.20;;;20.30;99.90;;;;;;2083957;28;20104;-67
2022/07/19 04:46:00;;;;;;;2.97;2.67;;;20.30;99.90;;;;;;2084981;28;20025;-67
2022/07/19 04:47:01;;;;;;;4.22;2.88;;;20.30;99.90;;;;;;2083410;28;20029;-67
2022/07/19 04:48:01;;;;;;;4.32;2.70;;;20.40;99.90;;;;;;2088189;28;20078;-67
2022/07/19 04:49:02;;;;;;;4.95;2.88;;;20.40;99.90;;;;;;2086091;28;20550;-67
2022/07/19 04:50:03;;;;;;;3.80;2.55;;;20.40;99.90;;;;;;2084715;28;20439;-67
2022/07/19 04:51:04;;;;;;;3.20;2.90;;;20.50;99.90;;;;;;2084501;28;20720;-67
2022/07/19 04:52:05;;;;;;;3.75;3.13;;;20.50;99.90;;;;;;2085493;28;20381;-67
2022/07/19 04:53:07;;;;;;;4.22;3.15;;;20.50;99.90;;;;;;2084458;28;20023;-67
2022/07/19 04:54:08;;;;;;;4.00;2.90;;;20.50;99.90;;;;;;2083302;28;20098;-67
2022/07/19 04:55:09;;;;;;;3.95;2.60;;;20.60;99.90;;;;;;2086890;28;20024;-67
2022/07/19 04:56:10;;;;;;;4.07;2.72;;;20.60;99.90;;;;;;2084483;28;20527;-67
2022/07/19 04:57:10;;;;;;;3.85;3.50;;;20.70;99.90;;;;;;2084641;28;20028;-67
2022/07/19 04:58:11;;;;;;;4.07;2.90;;;20.80;99.90;;;;;;2084184;28;20049;-67
2022/07/19 04:59:12;;;;;;;6.05;3.13;;;20.80;99.90;;;;;;2084644;28;20025;-67
2022/07/19 05:00:12;;;;;;;4.22;3.03;;;20.90;99.90;;;;;;2086155;28;20094;-67
2022/07/19 05:01:13;;;;;;;4.45;2.88;;;20.90;99.90;;;;;;2083613;28;20107;-67
2022/07/19 05:02:13;;;;;;;4.70;2.67;;;21.00;99.90;;;;;;2084851;28;20064;-67
2022/07/19 05:03:14;;;;;;;3.25;2.85;;;21.10;99.90;;;;;;2084546;28;20481;-67
2022/07/19 05:04:15;;;;;;;5.22;2.70;;;21.10;99.90;;;;;;2084879;28;20071;-67
2022/07/19 05:05:16;;;;;;;5.35;2.58;;;21.20;99.90;;;;;;2083401;28;20064;-67
2022/07/19 05:06:16;;;;;;;4.40;2.88;;;21.30;99.90;;;;;;2083853;28;20039;-67
2022/07/19 05:07:17;;;;;;;3.42;2.78;;;21.40;99.90;;;;;;2086597;28;20116;-67
2022/07/19 05:08:17;;;;;;;3.95;2.63;;;21.40;99.90;;;;;;2084310;28;20017;-67
2022/07/19 05:09:18;;;;;;;3.05;2.70;;;21.50;99.90;;;;;;2086018;28;20078;-67
2022/07/19 05:10:19;;;;;;;3.25;2.83;;;21.60;99.90;;;;;;2086850;28;20019;-67
2022/07/19 05:11:20;;;;;;;5.32;2.92;;;21.60;99.90;;;;;;2083914;28;20017;-67
2022/07/19 05:12:20;;;;;;;7.07;3.08;;;21.70;99.90;;;;;;2084500;28;20028;-67
2022/07/19 05:13:21;;;;;;;6.13;3.10;;;21.80;99.90;;;;;;2082833;28;20030;-67
2022/07/19 05:14:22;;;;;;;4.95;3.05;;;21.90;99.90;;;;;;2085844;28;20029;-67
2022/07/19 05:15:22;;;;;;;5.32;2.65;;;22.00;99.90;;;;;;2085096;28;20373;-67
2022/07/19 05:16:23;;;;;;;4.60;3.00;;;22.10;99.90;;;;;;2084450;28;20029;-67
2022/07/19 05:17:24;;;;;;;5.43;3.58;;;22.10;99.90;;;;;;2084872;28;20031;-67
2022/07/19 05:18:25;;;;;;;4.57;2.90;;;22.20;99.90;;;;;;2085613;28;20021;-67